Data for 09/08/2008

Time Sea-Level Adjusted Pressure Absolute Pressure Temperature Relative Humidity Dew Point   
(mb) (inHg) (mb) (inHg) (C) (F) (%) (C) (F)
00:05 1025 30.27 854 25.22 6 42.8 78 2.5 36.5
00:10 1025 30.27 854 25.22 6.1 42.9 79 2.7 36.8
00:15 1025 30.27 854 25.22 6 42.8 78 2.5 36.6
00:20 1025 30.27 854 25.22 6 42.8 78 2.5 36.5
00:25 1025 30.27 854 25.22 5.9 42.6 78 2.5 36.4
00:30 1025 30.27 854 25.22 5.9 42.6 77 2.3 36.1
00:35 1025 30.27 854 25.22 5.9 42.6 77 2.2 36
00:40 1025 30.27 854 25.22 6 42.8 77 2.2 36
00:45 1025 30.27 854 25.22 6 42.8 77 2.4 36.3
00:50 1025 30.27 854 25.22 6 42.7 78 2.3 36.2
00:55 1024 30.24 854 25.22 6 42.8 78 2.4 36.3
01:00 1025 30.27 854 25.22 6 42.9 77 2.4 36.3
01:05 1024 30.24 854 25.22 6 42.8 78 2.4 36.3
01:10 1025 30.27 854 25.22 5.9 42.6 78 2.4 36.3
01:15 1025 30.27 854 25.22 5.8 42.5 79 2.4 36.3
01:20 1024 30.24 854 25.22 6 42.8 77 2.3 36.2
01:25 1024 30.24 854 25.22 6 42.8 78 2.4 36.4
01:30 1024 30.24 854 25.22 6 42.8 78 2.4 36.2
01:35 1024 30.24 854 25.22 5.9 42.7 78 2.3 36.1
01:40 1024 30.24 854 25.22 5.9 42.6 78 2.4 36.3
01:45 1024 30.24 854 25.22 5.7 42.3 79 2.3 36.2
01:50 1024 30.24 854 25.22 5.7 42.3 79 2.4 36.3
01:55 1024 30.24 854 25.22 5.6 42.1 80 2.4 36.3
02:00 1024 30.24 854 25.22 5.5 41.9 80 2.3 36.2
02:05 1024 30.24 854 25.22 5.4 41.7 81 2.3 36.2
02:10 1024 30.24 854 25.22 5.2 41.4 81 2.3 36.1
02:15 1024 30.24 854 25.22 5.2 41.4 81 2.3 36.1
02:20 1024 30.24 854 25.22 5.2 41.3 81 2.2 36
02:25 1024 30.24 854 25.22 5.1 41.2 81 2.2 36
02:30 1024 30.24 854 25.22 5 41.1 81 2.1 35.8
02:35 1024 30.24 854 25.22 5.1 41.1 82 2.2 36
02:40 1024 30.24 854 25.22 4.9 40.8 83 2.2 36
02:45 1024 30.24 853 25.19 4.8 40.6 83 2.1 35.8
02:50 1024 30.24 853 25.19 4.8 40.7 83 2.2 35.9
02:55 1024 30.24 853 25.19 4.7 40.5 84 2.2 36
03:00 1024 30.24 853 25.19 4.6 40.4 84 2.1 35.8
03:05 1024 30.24 853 25.19 4.7 40.5 84 2.2 35.9
03:10 1024 30.24 853 25.19 4.7 40.5 84 2.2 36
03:15 1024 30.24 853 25.19 4.7 40.5 84 2.2 36
03:20 1024 30.24 853 25.19 4.8 40.6 83 2.2 36
03:25 1024 30.24 853 25.19 4.8 40.7 83 2.3 36.1
03:30 1024 30.24 853 25.19 4.8 40.6 84 2.2 36
03:35 1024 30.24 853 25.19 4.6 40.3 85 2.2 36
03:40 1024 30.24 853 25.19 4.4 39.9 85 2.2 35.9
03:45 1024 30.24 853 25.19 4.2 39.6 86 2.1 35.8
03:50 1024 30.24 853 25.19 4 39.2 86 1.9 35.4
03:55 1024 30.24 853 25.19 3.8 38.8 86 1.6 34.9
04:00 1024 30.24 853 25.19 3.7 38.6 87 1.7 35
04:05 1024 30.24 853 25.19 3.5 38.3 87 1.6 34.9
04:10 1024 30.24 853 25.19 3.5 38.3 87 1.6 34.9
04:15 1024 30.24 853 25.19 3.4 38.2 87 1.5 34.8
04:20 1024 30.24 853 25.19 3.4 38.1 87 1.5 34.7
04:25 1024 30.24 853 25.19 3.2 37.8 88 1.4 34.5
04:30 1024 30.24 853 25.19 3.2 37.7 88 1.4 34.5
04:35 1024 30.24 853 25.19 3.1 37.6 88 1.3 34.4
04:40 1024 30.24 853 25.19 3 37.5 88 1.3 34.4
04:45 1024 30.24 853 25.19 3 37.4 88 1.2 34.1
04:50 1024 30.24 853 25.19 2.9 37.3 86 0.8 33.4
04:55 1024 30.24 853 25.19 3 37.3 85 0.7 33.3
05:00 1024 30.24 853 25.19 3 37.4 84 0.6 33.1
05:05 1024 30.24 853 25.19 3 37.4 84 0.6 33.1
05:10 1024 30.24 853 25.19 3.1 37.5 85 0.7 33.3
05:15 1024 30.24 853 25.19 3.1 37.6 85 0.8 33.4
05:20 1024 30.24 853 25.19 3 37.4 86 0.9 33.6
05:25 1024 30.24 853 25.19 2.9 37.2 87 0.9 33.6
05:30 1024 30.24 853 25.19 2.8 37.1 86 0.7 33.2
05:35 1024 30.24 853 25.19 2.8 37 88 0.9 33.6
05:40 1024 30.24 853 25.19 2.9 37.3 86 0.8 33.4
05:45 1024 30.24 853 25.19 2.7 36.9 85 0.5 32.9
05:50 1024 30.24 853 25.19 2.7 36.8 85 0.4 32.7
05:55 1024 30.24 853 25.19 2.6 36.7 85 0.4 32.8
06:00 1024 30.24 853 25.19 2.3 36.2 88 0.5 32.9
06:05 1024 30.24 853 25.19 2 35.6 88 0.2 32.4
06:10 1024 30.24 853 25.19 1.9 35.4 89 0.3 32.5
06:15 1024 30.24 853 25.19 1.9 35.5 88 0.2 32.3
06:20 1024 30.24 853 25.19 2.1 35.9 88 0.4 32.8
06:25 1024 30.24 853 25.19 2.2 36 89 0.6 33.1
06:30 1024 30.24 853 25.19 2.2 35.9 89 0.6 33.1
06:35 1024 30.24 853 25.19 2.1 35.7 89 0.5 32.9
06:40 1024 30.24 853 25.19 1.9 35.3 89 0.3 32.5
06:45 1024 30.24 853 25.19 1.9 35.5 89 0.3 32.6
06:50 1024 30.24 853 25.19 1.8 35.3 88 0.1 32.2
06:55 1024 30.24 853 25.19 1.8 35.3 89 0.2 32.3
07:00 1024 30.24 853 25.19 2.1 35.8 87 0.2 32.3
07:05 1024 30.24 853 25.19 2.3 36.2 87 0.4 32.7
07:10 1024 30.24 853 25.19 2.3 36.2 85 0 32
07:15 1024 30.24 853 25.19 2.4 36.3 85 0.1 32.1
07:20 1024 30.24 853 25.19 2.5 36.5 84 0.1 32.2
07:25 1024 30.24 853 25.19 2.6 36.8 83 0.1 32.1
07:30 1024 30.24 853 25.19 2.6 36.7 83 0 32.1
07:35 1024 30.24 853 25.19 2.6 36.6 82 -0.2 31.7
07:40 1024 30.24 853 25.19 2.7 36.8 80 -0.4 31.2
07:45 1024 30.24 853 25.19 2.9 37.1 80 -0.3 31.4
07:50 1024 30.24 853 25.19 3.1 37.6 80 -0 32
07:55 1024 30.24 853 25.19 3.2 37.8 80 0 32.1
08:00 1024 30.24 853 25.19 3.6 38.5 79 0.2 32.4
08:05 1024 30.24 853 25.19 4.2 39.5 79 0.8 33.5
08:10 1024 30.24 853 25.19 4.1 39.3 80 0.9 33.6
08:15 1024 30.24 853 25.19 4.5 40.2 77 0.9 33.7
08:20 1024 30.24 853 25.19 5.2 41.3 75 1 33.9
08:25 1024 30.24 853 25.19 6 42.7 71 1.1 34
08:30 1024 30.24 853 25.19 6.5 43.7 69 1.3 34.3
08:35 1024 30.24 853 25.19 7.1 44.7 68 1.6 34.8
08:40 1024 30.24 853 25.19 7 44.6 68 1.6 34.8
08:45 1024 30.24 853 25.19 6.6 43.9 70 1.5 34.7
08:50 1024 30.24 853 25.19 6.6 43.9 69 1.4 34.5
08:55 1023 30.21 853 25.19 6.6 43.9 70 1.6 34.8
09:00 1023 30.21 853 25.19 6.5 43.7 71 1.7 35.1
09:05 1023 30.21 853 25.19 6.8 44.3 69 1.5 34.7
09:10 1023 30.21 853 25.19 7 44.5 68 1.5 34.7
09:15 1023 30.21 853 25.19 6.9 44.4 70 1.8 35.3
09:20 1023 30.21 853 25.19 7.2 44.9 66 1.2 34.2
09:25 1023 30.21 852 25.16 7.5 45.5 64 1.3 34.3
09:30 1023 30.21 852 25.16 8 46.4 64 1.6 34.8
09:35 1023 30.21 852 25.16 7.9 46.2 64 1.5 34.6
09:40 1023 30.21 852 25.16 8.3 46.9 64 2 35.6
09:45 1023 30.21 852 25.16 8.8 47.9 60 1.5 34.7
09:50 1023 30.21 852 25.16 9.3 48.8 56 1 33.8
09:55 1023 30.21 852 25.16 9.3 48.7 58 1.4 34.6
10:00 1023 30.21 852 25.16 9.2 48.5 57 1.2 34.1
10:05 1023 30.21 852 25.16 9.1 48.4 55 0.6 33
10:10 1023 30.21 852 25.16 9.9 49.8 54 1.1 34
10:15 1023 30.21 852 25.16 10.5 50.9 53 1.3 34.4
10:20 1023 30.21 852 25.16 9.5 49.1 54 0.6 33.2
10:25 1023 30.21 852 25.16 10.2 50.4 52 0.9 33.7
10:30 1023 30.21 852 25.16 9.9 49.8 54 1.1 33.9
10:35 1023 30.21 852 25.16 9.8 49.6 53 0.6 33.1
10:40 1023 30.21 852 25.16 9.9 49.9 53 0.7 33.3
10:45 1022 30.18 852 25.16 10.4 50.7 50 0.5 32.9
10:50 1022 30.18 852 25.16 10.6 51 50 0.7 33.3
10:55 1022 30.18 852 25.16 10.9 51.5 52 1.3 34.4
11:00 1022 30.18 852 25.16 10.4 50.7 52 1 33.9
11:05 1022 30.18 852 25.16 10.5 51 51 0.9 33.6
11:10 1022 30.18 852 25.16 11.2 52.1 48 0.6 33.2
11:15 1022 30.18 851 25.13 12.1 53.7 46 1 33.8
11:20 1022 30.18 851 25.13 12.3 54.1 47 1.3 34.4
11:25 1022 30.18 851 25.13 12.7 54.9 47 1.7 35
11:30 1022 30.18 851 25.13 12.8 55 54 3.8 38.8
11:35 1022 30.18 851 25.13 11.8 53.2 54 2.9 37.2
11:40 1022 30.18 851 25.13 11.5 52.6 56 3 37.3
11:45 1022 30.18 851 25.13 11.5 52.6 55 2.9 37.2
11:50 1022 30.18 851 25.13 12 53.6 52 2.6 36.7
11:55 1022 30.18 851 25.13 12.4 54.3 54 3.5 38.3
12:00 1022 30.18 851 25.13 12.3 54.2 53 3 37.4
12:05 1022 30.18 851 25.13 12.2 54 53 3.1 37.6
12:10 1022 30.18 851 25.13 11.7 53 56 3.3 38
12:15 1022 30.18 851 25.13 11.8 53.2 52 2.4 36.3
12:20 1022 30.18 851 25.13 12.9 55.2 52 3.2 37.8
12:25 1022 30.18 851 25.13 12.7 54.8 48 2.1 35.8
12:30 1022 30.18 851 25.13 13.6 56.5 47 2.5 36.6
12:35 1022 30.18 851 25.13 14.1 57.4 44 2.2 35.9
12:40 1022 30.18 851 25.13 13.4 56.2 47 2.6 36.6
12:45 1021 30.15 851 25.13 12.6 54.7 49 2.1 35.8
12:50 1021 30.15 851 25.13 13.1 55.6 46 1.8 35.2
12:55 1021 30.15 850 25.1 14.4 57.9 42 1.9 35.4
13:00 1021 30.15 850 25.1 15 59.1 42 2.2 36
13:05 1021 30.15 850 25.1 14.1 57.3 43 1.7 35.1
13:10 1021 30.15 850 25.1 14.7 58.4 42 1.8 35.3
13:15 1021 30.15 850 25.1 15 58.9 41 1.9 35.5
13:20 1021 30.15 850 25.1 15.3 59.6 40 1.7 35.1
13:25 1021 30.15 850 25.1 15.3 59.5 40 1.9 35.4
13:30 1021 30.15 850 25.1 15.2 59.3 38 1.1 34
13:35 1021 30.15 850 25.1 15.4 59.8 37 0.9 33.6
13:40 1021 30.15 850 25.1 15.5 59.9 38 1.4 34.6
13:45 1020 30.12 850 25.1 15.9 60.5 34 0.3 32.6
13:50 1020 30.12 850 25.1 16.3 61.4 33 0.2 32.4
13:55 1020 30.12 849 25.07 16.5 61.7 33 0.1 32.2
14:00 1020 30.12 849 25.07 16.2 61.1 36 1.2 34.1
14:05 1020 30.12 849 25.07 16.2 61.2 34 0.6 33.1
14:10 1020 30.12 849 25.07 16.5 61.7 33 0.3 32.5
14:15 1020 30.12 849 25.07 16.9 62.5 31 -0.2 31.6
14:20 1020 30.12 849 25.07 17.2 62.9 32 0.6 33.1
14:25 1020 30.12 849 25.07 17.6 63.7 31 0.6 33
14:30 1020 30.12 849 25.07 17 62.6 34 1.2 34.2
14:35 1020 30.12 849 25.07 16.3 61.3 33 0.3 32.5
14:40 1020 30.12 849 25.07 17.6 63.6 30 -0 32
14:45 1020 30.12 849 25.07 18 64.3 31 0.7 33.2
14:50 1019 30.09 849 25.07 17.8 64.1 29 -0.5 31.1
14:55 1019 30.09 849 25.07 17.3 63.2 29 -0.6 30.9
15:00 1019 30.09 849 25.07 17 62.5 28 -1.5 29.2
15:05 1019 30.09 848 25.04 18.1 64.6 28 -0.3 31.5
15:10 1019 30.09 848 25.04 18.6 65.4 27 -0.7 30.8
15:15 1019 30.09 848 25.04 18.3 65 29 -0.1 31.9
15:20 1019 30.09 848 25.04 18 64.3 31 0.6 33
15:25 1019 30.09 848 25.04 18.5 65.4 30 0.6 33.1
15:30 1019 30.09 848 25.04 18.4 65.2 29 0 32
15:35 1019 30.09 848 25.04 18.3 64.9 27 -0.8 30.6
15:40 1019 30.09 848 25.04 18.2 64.8 27 -0.8 30.6
15:45 1019 30.09 848 25.04 18.6 65.4 28 -0.2 31.6
15:50 1019 30.09 848 25.04 17.7 63.8 26 -2.2 28.1
15:55 1019 30.09 848 25.04 16.9 62.4 27 -1.9 28.5
16:00 1018 30.06 848 25.04 18 64.5 26 -1.7 28.9
16:05 1018 30.06 848 25.04 18.9 66 22 -3.1 26.5
16:10 1018 30.06 848 25.04 17.9 64.2 24 -2.6 27.3
16:15 1018 30.06 848 25.04 17 62.7 24 -3.5 25.7
16:20 1018 30.06 847 25.01 17.7 63.8 22 -4 24.7
16:25 1018 30.06 847 25.01 17.6 63.7 24 -3.2 26.3
16:30 1018 30.06 847 25.01 17.6 63.7 23 -3.6 25.5
16:35 1018 30.06 847 25.01 18.2 64.8 23 -3.4 25.9
16:40 1018 30.06 847 25.01 17.8 64 25 -2.6 27.4
16:45 1018 30.06 847 25.01 18.2 64.8 24 -2.4 27.6
16:50 1018 30.06 847 25.01 18.9 66 25 -1.2 29.9
16:55 1018 30.06 847 25.01 18.3 64.9 26 -1.5 29.2
17:00 1018 30.06 847 25.01 19.1 66.3 24 -2 28.4
17:05 1018 30.06 847 25.01 19.7 67.4 23 -1.8 28.7
17:10 1018 30.06 847 25.01 19.9 67.8 22 -2.2 28.1
17:15 1018 30.06 847 25.01 19.2 66.6 24 -1.6 29.1
17:20 1018 30.06 847 25.01 18.5 65.2 26 -1.4 29.5
17:25 1018 30.06 847 25.01 18.5 65.3 25 -1.8 28.7
17:30 1018 30.06 847 25.01 19.1 66.3 23 -2.3 27.8
17:35 1018 30.06 847 25.01 18.2 64.8 26 -1.5 29.2
17:40 1017 30.03 847 25.01 18.1 64.6 26 -1.8 28.8
17:45 1017 30.03 847 25.01 18 64.4 26 -1.9 28.5
17:50 1017 30.03 847 25.01 18.5 65.4 25 -1.8 28.7
17:55 1017 30.03 847 25.01 18.4 65.1 25 -1.7 28.9
18:00 1017 30.03 846 24.98 18.7 65.7 25 -1.6 29.1
18:05 1017 30.03 846 24.98 18.1 64.5 26 -1.6 29.1
18:10 1017 30.03 846 24.98 18.2 64.8 25 -1.8 28.8
18:15 1017 30.03 846 24.98 17.7 63.8 26 -1.9 28.6
18:20 1017 30.03 846 24.98 16.9 62.4 27 -2.1 28.2
18:25 1017 30.03 846 24.98 17 62.5 27 -2.2 28.1
18:30 1017 30.03 846 24.98 16.9 62.5 27 -2.2 28.1
18:35 1017 30.03 846 24.98 16.8 62.3 27 -2.4 27.8
18:40 1017 30.03 846 24.98 16.8 62.3 28 -1.5 29.2
18:45 1017 30.03 846 24.98 16.6 61.8 28 -1.9 28.5
18:50 1017 30.03 846 24.98 16.5 61.7 27 -2.2 28
18:55 1017 30.03 846 24.98 16.4 61.6 28 -2.1 28.2
19:00 1017 30.03 846 24.98 16.4 61.6 27 -2.5 27.4
19:05 1017 30.03 846 24.98 16.4 61.6 28 -2.1 28.1
19:10 1017 30.03 846 24.98 16.4 61.6 28 -1.9 28.7
19:15 1017 30.03 846 24.98 16.4 61.5 28 -2.3 27.9
19:20 1017 30.03 846 24.98 16.3 61.3 29 -1.6 29.1
19:25 1017 30.03 846 24.98 16.1 60.9 30 -1.2 29.8
19:30 1017 30.03 846 24.98 15.6 60 38 1.2 34.2
19:35 1017 30.03 846 24.98 14.8 58.6 41 1.6 34.9
19:40 1017 30.03 846 24.98 14.3 57.7 41 1.4 34.6
19:45 1017 30.03 846 24.98 14 57.2 41 1.1 34
19:50 1017 30.03 846 24.98 13.8 56.8 43 1.3 34.4
19:55 1017 30.03 846 24.98 13.5 56.3 43 1.3 34.3
20:00 1017 30.03 846 24.98 13.3 56 44 1.5 34.7
20:05 1017 30.03 846 24.98 12.9 55.3 48 2.2 35.9
20:10 1017 30.03 846 24.98 12.4 54.4 50 2.5 36.5
20:15 1017 30.03 846 24.98 11.9 53.4 52 2.3 36.1
20:20 1017 30.03 846 24.98 11.5 52.7 51 1.8 35.3
20:25 1017 30.03 846 24.98 11.6 52.9 52 2.2 35.9
20:30 1017 30.03 846 24.98 11.7 53 52 2.1 35.7
20:35 1017 30.03 846 24.98 11.6 52.8 53 2.5 36.5
20:40 1017 30.03 846 24.98 11.7 53 53 2.5 36.5
20:45 1017 30.03 846 24.98 11.9 53.4 52 2.3 36.2
20:50 1016 30 846 24.98 11.9 53.5 53 2.7 36.8
20:55 1017 30.03 846 24.98 11.8 53.3 54 2.9 37.2
21:00 1017 30.03 846 24.98 11.6 52.9 56 3.1 37.7
21:05 1017 30.03 846 24.98 11.3 52.3 57 3.1 37.6
21:10 1017 30.03 846 24.98 11.2 52.2 57 3.1 37.6
21:15 1017 30.03 846 24.98 11.3 52.3 57 3 37.5
21:20 1016 30 846 24.98 11.4 52.4 55 2.8 37
21:25 1016 30 846 24.98 11.5 52.6 55 2.9 37.2
21:30 1016 30 846 24.98 11.4 52.5 56 2.9 37.2
21:35 1016 30 846 24.98 11.2 52.1 56 2.8 37
21:40 1016 30 846 24.98 11.2 52.1 56 2.7 36.8
21:45 1016 30 845 24.95 11.2 52.2 55 2.5 36.4
21:50 1016 30 845 24.95 11.3 52.3 55 2.5 36.5
21:55 1016 30 845 24.95 11.3 52.4 54 2.3 36.1
22:00 1016 30 845 24.95 11.4 52.4 54 2.4 36.4
22:05 1016 30 845 24.95 11.2 52.2 53 2.1 35.8
22:10 1016 30 845 24.95 11.3 52.3 54 2.3 36.2
22:15 1016 30 845 24.95 11.3 52.3 53 2.1 35.9
22:20 1016 30 845 24.95 11.4 52.4 53 2.1 35.8
22:25 1016 30 845 24.95 11.3 52.4 54 2.3 36.2
22:30 1016 30 845 24.95 11.1 52.1 54 2.1 35.9
22:35 1016 30 845 24.95 11.1 52 54 2.1 35.7
22:40 1016 30 845 24.95 11 51.9 54 2.1 35.8
22:45 1016 30 845 24.95 10.9 51.7 55 2.2 35.9
22:50 1016 30 845 24.95 10.3 50.6 60 2.9 37.2
22:55 1016 30 845 24.95 9.6 49.2 61 2.5 36.4
23:00 1016 30 845 24.95 9.4 49 61 2.4 36.2
23:05 1016 30 845 24.95 9.3 48.7 62 2.4 36.4
23:10 1016 30 845 24.95 9.3 48.7 62 2.4 36.4
23:15 1016 30 845 24.95 9.2 48.6 62 2.3 36.1
23:20 1016 30 845 24.95 9.3 48.8 62 2.4 36.3
23:25 1016 30 845 24.95 9.3 48.8 62 2.4 36.3
23:30 1015 29.97 845 24.95 9.3 48.7 62 2.5 36.4
23:35 1015 29.97 845 24.95 9.2 48.6 62 2.4 36.3
23:40 1015 29.97 845 24.95 9.3 48.7 61 2.2 36
23:45 1015 29.97 845 24.95 9.4 49 60 2 35.7
23:50 1015 29.97 845 24.95 9.7 49.4 58 1.9 35.4
23:55 1015 29.97 845 24.95 9.8 49.6 59 2.1 35.8
24:00 1015 29.97 845 24.95 9.7 49.4 60 2.2 36